BCS2882 EIDW-EINN
Flight info
| Callsign | BCS2882 |
|---|---|
| Flight time | 0h 26m |
| Altitude | 22000 |
| Route | PELIG2J PELIG DCT DIGAN DIGAN2D |
| Aircraft | B752/M-SDE3FGHIM3RWXY/LB1 |
Departure
| Time | 2026-05-07 20:36 |
|---|---|
| Airport | Dublin Airport (EIDW) |
Arrival
| Time | 2026-05-07 21:03 |
|---|---|
| Airport | Shannon Airport (EINN) |
| Time | Latitude | Longitude | Altitude | Speed | Heading |
|---|---|---|---|---|---|
| 2026-05-07 20:16 | 53.42425 | -6.26198 | 253 ft | 0 kts | 184° |
| 2026-05-07 20:26 | 53.42428 | -6.26197 | 252 ft | 2 kts | 185° |
| 2026-05-07 20:26 | 53.42443 | -6.26195 | 252 ft | 2 kts | 184° |
| 2026-05-07 20:27 | 53.42458 | -6.26193 | 252 ft | 2 kts | 184° |
| 2026-05-07 20:27 | 53.42473 | -6.26192 | 252 ft | 2 kts | 184° |
| 2026-05-07 20:27 | 53.42486 | -6.26190 | 252 ft | 0 kts | 184° |
| 2026-05-07 20:27 | 53.42498 | -6.26190 | 252 ft | 2 kts | 160° |
| 2026-05-07 20:28 | 53.42510 | -6.26204 | 252 ft | 2 kts | 128° |
| 2026-05-07 20:28 | 53.42516 | -6.26225 | 252 ft | 0 kts | 99° |
| 2026-05-07 20:28 | 53.42516 | -6.26230 | 252 ft | 1 kts | 92° |
| 2026-05-07 20:28 | 53.42516 | -6.26236 | 252 ft | 0 kts | 95° |
| 2026-05-07 20:30 | 53.42516 | -6.26232 | 252 ft | 2 kts | 95° |
| 2026-05-07 20:30 | 53.42513 | -6.26167 | 252 ft | 8 kts | 96° |
| 2026-05-07 20:31 | 53.42508 | -6.26088 | 252 ft | 11 kts | 96° |
| 2026-05-07 20:31 | 53.42475 | -6.25873 | 252 ft | 16 kts | 117° |
| 2026-05-07 20:31 | 53.42527 | -6.25711 | 252 ft | 18 kts | 43° |
| 2026-05-07 20:31 | 53.42652 | -6.25741 | 252 ft | 21 kts | 342° |
| 2026-05-07 20:32 | 53.42773 | -6.25610 | 252 ft | 21 kts | 46° |
| 2026-05-07 20:32 | 53.42915 | -6.25630 | 252 ft | 24 kts | 335° |
| 2026-05-07 20:32 | 53.43083 | -6.25753 | 252 ft | 28 kts | 338° |
| 2026-05-07 20:32 | 53.43234 | -6.25860 | 252 ft | 21 kts | 337° |
| 2026-05-07 20:33 | 53.43355 | -6.25875 | 252 ft | 19 kts | 50° |
| 2026-05-07 20:33 | 53.43411 | -6.25648 | 252 ft | 23 kts | 85° |
| 2026-05-07 20:33 | 53.43396 | -6.25357 | 252 ft | 27 kts | 95° |
| 2026-05-07 20:33 | 53.43379 | -6.25030 | 252 ft | 29 kts | 95° |
| 2026-05-07 20:34 | 53.43369 | -6.24844 | 252 ft | 16 kts | 94° |
| 2026-05-07 20:34 | 53.43357 | -6.24630 | 252 ft | 16 kts | 96° |
| 2026-05-07 20:34 | 53.43382 | -6.24563 | 252 ft | 4 kts | 5° |
| 2026-05-07 20:34 | 53.43386 | -6.24562 | 252 ft | 0 kts | 5° |
| 2026-05-07 20:35 | 53.43388 | -6.24562 | 252 ft | 2 kts | 5° |
| 2026-05-07 20:35 | 53.43413 | -6.24558 | 252 ft | 7 kts | 5° |
| 2026-05-07 20:35 | 53.43496 | -6.24528 | 252 ft | 8 kts | 20° |
| 2026-05-07 20:35 | 53.43522 | -6.24559 | 252 ft | 2 kts | 277° |
| 2026-05-07 20:36 | 53.43528 | -6.24648 | 252 ft | 21 kts | 276° |
| 2026-05-07 20:36 | 53.43548 | -6.25008 | 253 ft | 83 kts | 276° |
| 2026-05-07 20:36 | 53.43674 | -6.27273 | 885 ft | 186 kts | 277° |
| 2026-05-07 20:36 | 53.43949 | -6.28541 | 2072 ft | 185 kts | 296° |
| 2026-05-07 20:37 | 53.44751 | -6.30787 | 3547 ft | 180 kts | 301° |
| 2026-05-07 20:37 | 53.45239 | -6.31977 | 4001 ft | 195 kts | 303° |
| 2026-05-07 20:37 | 53.46054 | -6.33910 | 4775 ft | 216 kts | 303° |
| 2026-05-07 20:37 | 53.47237 | -6.36799 | 5987 ft | 239 kts | 303° |
| 2026-05-07 20:38 | 53.48215 | -6.39152 | 6883 ft | 259 kts | 304° |
| 2026-05-07 20:38 | 53.48913 | -6.40780 | 7724 ft | 262 kts | 304° |
| 2026-05-07 20:38 | 53.49930 | -6.43210 | 9001 ft | 263 kts | 297° |
| 2026-05-07 20:38 | 53.50430 | -6.46133 | 10101 ft | 269 kts | 270° |
| 2026-05-07 20:39 | 53.49717 | -6.50176 | 11469 ft | 281 kts | 239° |
| 2026-05-07 20:39 | 53.49101 | -6.52076 | 12315 ft | 282 kts | 243° |
| 2026-05-07 20:39 | 53.47988 | -6.56014 | 13866 ft | 288 kts | 243° |
| 2026-05-07 20:39 | 53.47416 | -6.57994 | 14630 ft | 290 kts | 243° |
| 2026-05-07 20:40 | 53.46536 | -6.61022 | 15739 ft | 293 kts | 243° |
| 2026-05-07 20:40 | 53.45334 | -6.65136 | 17113 ft | 300 kts | 242° |
| 2026-05-07 20:40 | 53.44742 | -6.67155 | 18061 ft | 294 kts | 242° |
| 2026-05-07 20:40 | 53.43876 | -6.70110 | 19580 ft | 278 kts | 242° |
| 2026-05-07 20:41 | 53.42760 | -6.73897 | 21025 ft | 277 kts | 242° |
| 2026-05-07 20:41 | 53.41896 | -6.76817 | 21671 ft | 290 kts | 242° |
| 2026-05-07 20:41 | 53.41273 | -6.78922 | 21772 ft | 310 kts | 242° |
| 2026-05-07 20:41 | 53.39954 | -6.83377 | 22009 ft | 330 kts | 242° |
| 2026-05-07 20:42 | 53.38933 | -6.86826 | 21955 ft | 324 kts | 242° |
| 2026-05-07 20:42 | 53.38267 | -6.89072 | 21947 ft | 317 kts | 242° |
| 2026-05-07 20:42 | 53.36974 | -6.93426 | 21967 ft | 316 kts | 242° |
| 2026-05-07 20:42 | 53.36310 | -6.95655 | 21964 ft | 319 kts | 242° |
| 2026-05-07 20:43 | 53.35325 | -6.98964 | 21965 ft | 320 kts | 242° |
| 2026-05-07 20:43 | 53.34334 | -7.02282 | 21795 ft | 325 kts | 242° |
| 2026-05-07 20:43 | 53.33304 | -7.05727 | 21318 ft | 328 kts | 242° |
| 2026-05-07 20:43 | 53.32295 | -7.09103 | 20847 ft | 326 kts | 242° |
| 2026-05-07 20:44 | 53.30946 | -7.13605 | 20218 ft | 322 kts | 242° |
| 2026-05-07 20:44 | 53.30279 | -7.15829 | 19907 ft | 321 kts | 242° |
| 2026-05-07 20:44 | 53.28945 | -7.20266 | 19294 ft | 323 kts | 242° |
| 2026-05-07 20:44 | 53.28274 | -7.22494 | 18989 ft | 325 kts | 242° |
| 2026-05-07 20:45 | 53.26918 | -7.26992 | 18363 ft | 328 kts | 242° |
| 2026-05-07 20:45 | 53.26230 | -7.29274 | 18037 ft | 328 kts | 242° |
| 2026-05-07 20:45 | 53.25213 | -7.32640 | 17558 ft | 329 kts | 242° |
| 2026-05-07 20:45 | 53.23840 | -7.37176 | 16916 ft | 330 kts | 242° |
| 2026-05-07 20:46 | 53.22796 | -7.40617 | 16417 ft | 331 kts | 242° |
| 2026-05-07 20:46 | 53.22103 | -7.42902 | 16081 ft | 330 kts | 242° |
| 2026-05-07 20:46 | 53.20740 | -7.47386 | 15424 ft | 325 kts | 242° |
| 2026-05-07 20:46 | 53.20057 | -7.49630 | 15099 ft | 323 kts | 242° |
| 2026-05-07 20:47 | 53.19048 | -7.52941 | 14618 ft | 320 kts | 242° |
| 2026-05-07 20:47 | 53.18038 | -7.56252 | 14135 ft | 320 kts | 242° |
| 2026-05-07 20:47 | 53.16700 | -7.60629 | 13510 ft | 318 kts | 242° |
| 2026-05-07 20:47 | 53.15706 | -7.63874 | 13042 ft | 316 kts | 243° |
| 2026-05-07 20:48 | 53.15043 | -7.66038 | 12729 ft | 316 kts | 242° |
| 2026-05-07 20:48 | 53.14041 | -7.69306 | 12265 ft | 314 kts | 242° |
| 2026-05-07 20:48 | 53.12718 | -7.73610 | 11654 ft | 313 kts | 242° |
| 2026-05-07 20:48 | 53.12053 | -7.75771 | 11351 ft | 312 kts | 242° |
| 2026-05-07 20:49 | 53.11064 | -7.78982 | 10911 ft | 311 kts | 242° |
| 2026-05-07 20:49 | 53.10084 | -7.82159 | 10472 ft | 309 kts | 242° |
| 2026-05-07 20:49 | 53.08800 | -7.86315 | 10203 ft | 295 kts | 242° |
| 2026-05-07 20:49 | 53.07884 | -7.89279 | 10184 ft | 277 kts | 242° |
| 2026-05-07 20:50 | 53.07309 | -7.91137 | 10007 ft | 272 kts | 242° |
| 2026-05-07 20:50 | 53.06444 | -7.93924 | 9680 ft | 268 kts | 242° |
| 2026-05-07 20:50 | 53.05605 | -7.96631 | 9378 ft | 264 kts | 242° |
| 2026-05-07 20:50 | 53.04768 | -7.99324 | 9080 ft | 260 kts | 242° |
| 2026-05-07 20:51 | 53.03943 | -8.01974 | 8803 ft | 261 kts | 242° |
| 2026-05-07 20:51 | 53.03102 | -8.04675 | 8515 ft | 262 kts | 242° |
| 2026-05-07 20:51 | 53.02271 | -8.07339 | 8216 ft | 261 kts | 242° |
| 2026-05-07 20:51 | 53.01432 | -8.10030 | 7910 ft | 259 kts | 242° |
| 2026-05-07 20:52 | 53.00608 | -8.12667 | 7615 ft | 257 kts | 242° |
| 2026-05-07 20:52 | 52.99794 | -8.15267 | 7328 ft | 256 kts | 242° |
| 2026-05-07 20:52 | 52.98972 | -8.17895 | 7036 ft | 255 kts | 242° |
| 2026-05-07 20:52 | 52.98157 | -8.20495 | 6745 ft | 253 kts | 242° |
| 2026-05-07 20:53 | 52.97079 | -8.23929 | 6342 ft | 252 kts | 242° |
| 2026-05-07 20:53 | 52.96272 | -8.26496 | 6058 ft | 251 kts | 242° |
| 2026-05-07 20:53 | 52.95466 | -8.29059 | 5765 ft | 251 kts | 242° |
| 2026-05-07 20:53 | 52.94923 | -8.30782 | 5560 ft | 250 kts | 242° |
| 2026-05-07 20:54 | 52.94125 | -8.33315 | 5265 ft | 248 kts | 242° |
| 2026-05-07 20:54 | 52.93514 | -8.35253 | 5041 ft | 246 kts | 242° |
| 2026-05-07 20:54 | 52.92543 | -8.38325 | 4690 ft | 244 kts | 243° |
| 2026-05-07 20:54 | 52.91762 | -8.40798 | 4433 ft | 243 kts | 243° |
| 2026-05-07 20:55 | 52.91029 | -8.43315 | 4140 ft | 242 kts | 249° |
| 2026-05-07 20:55 | 52.90441 | -8.45852 | 4040 ft | 229 kts | 247° |
| 2026-05-07 20:55 | 52.89788 | -8.48168 | 4007 ft | 217 kts | 243° |
| 2026-05-07 20:55 | 52.89079 | -8.50369 | 3810 ft | 213 kts | 241° |
| 2026-05-07 20:56 | 52.88338 | -8.52464 | 3596 ft | 211 kts | 239° |
| 2026-05-07 20:56 | 52.87562 | -8.54511 | 3367 ft | 209 kts | 238° |
| 2026-05-07 20:56 | 52.86753 | -8.56533 | 3129 ft | 208 kts | 236° |
| 2026-05-07 20:56 | 52.85939 | -8.58483 | 2943 ft | 203 kts | 236° |
| 2026-05-07 20:57 | 52.85149 | -8.60316 | 2941 ft | 194 kts | 236° |
| 2026-05-07 20:57 | 52.84353 | -8.62126 | 2956 ft | 196 kts | 234° |
| 2026-05-07 20:57 | 52.83538 | -8.63946 | 2967 ft | 190 kts | 234° |
| 2026-05-07 20:57 | 52.82771 | -8.65634 | 2955 ft | 178 kts | 233° |
| 2026-05-07 20:58 | 52.82033 | -8.67240 | 2944 ft | 172 kts | 232° |
| 2026-05-07 20:58 | 52.81292 | -8.68815 | 2951 ft | 176 kts | 231° |
| 2026-05-07 20:58 | 52.80538 | -8.70433 | 2953 ft | 176 kts | 233° |
| 2026-05-07 20:58 | 52.79792 | -8.72026 | 2873 ft | 178 kts | 233° |
| 2026-05-07 20:59 | 52.79026 | -8.73663 | 2635 ft | 181 kts | 232° |
| 2026-05-07 20:59 | 52.78041 | -8.75769 | 2355 ft | 161 kts | 233° |
| 2026-05-07 20:59 | 52.77600 | -8.76708 | 2192 ft | 151 kts | 233° |
| 2026-05-07 20:59 | 52.76989 | -8.78010 | 1976 ft | 138 kts | 233° |
| 2026-05-07 21:00 | 52.76417 | -8.79231 | 1805 ft | 127 kts | 233° |
| 2026-05-07 21:00 | 52.75875 | -8.80388 | 1659 ft | 132 kts | 233° |
| 2026-05-07 21:00 | 52.75308 | -8.81601 | 1495 ft | 130 kts | 233° |
| 2026-05-07 21:00 | 52.74777 | -8.82732 | 1285 ft | 119 kts | 233° |
| 2026-05-07 21:01 | 52.74298 | -8.83752 | 1101 ft | 107 kts | 233° |
| 2026-05-07 21:01 | 52.73852 | -8.84704 | 949 ft | 102 kts | 234° |
| 2026-05-07 21:01 | 52.73410 | -8.85650 | 865 ft | 108 kts | 233° |
| 2026-05-07 21:01 | 52.72935 | -8.86638 | 781 ft | 111 kts | 234° |
| 2026-05-07 21:02 | 52.72324 | -8.87980 | 503 ft | 109 kts | 234° |
| 2026-05-07 21:02 | 52.72013 | -8.88638 | 420 ft | 111 kts | 232° |
| 2026-05-07 21:02 | 52.71529 | -8.89647 | 248 ft | 111 kts | 234° |
| 2026-05-07 21:02 | 52.71052 | -8.90666 | 91 ft | 115 kts | 234° |
| 2026-05-07 21:03 | 52.70558 | -8.91715 | 21 ft | 110 kts | 233° |
| 2026-05-07 21:03 | 52.70221 | -8.92432 | 21 ft | 40 kts | 232° |
| 2026-05-07 21:03 | 52.70040 | -8.92815 | 23 ft | 30 kts | 231° |
| 2026-05-07 21:03 | 52.69930 | -8.92972 | 25 ft | 18 kts | 163° |
| 2026-05-07 21:04 | 52.69833 | -8.92827 | 24 ft | 20 kts | 131° |
| 2026-05-07 21:04 | 52.69742 | -8.92686 | 22 ft | 20 kts | 136° |
| 2026-05-07 21:04 | 52.69642 | -8.92526 | 21 ft | 19 kts | 135° |
| 2026-05-07 21:04 | 52.69534 | -8.92344 | 20 ft | 24 kts | 123° |
| 2026-05-07 21:05 | 52.69475 | -8.92110 | 19 ft | 21 kts | 105° |
| 2026-05-07 21:05 | 52.69441 | -8.91891 | 18 ft | 17 kts | 110° |
| 2026-05-07 21:05 | 52.69394 | -8.91771 | 18 ft | 4 kts | 144° |
| 2026-05-07 21:05 | 52.69345 | -8.91745 | 18 ft | 9 kts | 163° |
| 2026-05-07 21:06 | 52.69291 | -8.91671 | 17 ft | 4 kts | 130° |
| 2026-05-07 21:06 | 52.69255 | -8.91602 | 17 ft | 10 kts | 131° |
| 2026-05-07 21:06 | 52.69204 | -8.91518 | 17 ft | 6 kts | 137° |
| 2026-05-07 21:06 | 52.69179 | -8.91503 | 17 ft | 4 kts | 180° |
| 2026-05-07 21:07 | 52.69145 | -8.91504 | 17 ft | 2 kts | 180° |
| 2026-05-07 21:07 | 52.69134 | -8.91505 | 17 ft | 0 kts | 181° |
| 2026-05-07 21:07 | 52.69130 | -8.91505 | 17 ft | 0 kts | 181° |